sensor_id;sensor_type;location;lat;lon;timestamp;temperature;humidity
41116;DHT22;26861;51.824;4.682;2023-02-27T00:01:24;14.70;52.70
41116;DHT22;26861;51.824;4.682;2023-02-27T00:03:50;14.70;52.70
41116;DHT22;26861;51.824;4.682;2023-02-27T00:06:16;14.70;52.80
41116;DHT22;26861;51.824;4.682;2023-02-27T00:08:43;14.70;52.80
41116;DHT22;26861;51.824;4.682;2023-02-27T00:11:09;14.70;53.40
41116;DHT22;26861;51.824;4.682;2023-02-27T00:13:35;14.70;52.80
41116;DHT22;26861;51.824;4.682;2023-02-27T00:16:01;14.70;52.80
41116;DHT22;26861;51.824;4.682;2023-02-27T00:18:27;14.70;53.50
41116;DHT22;26861;51.824;4.682;2023-02-27T00:20:53;14.70;52.80
41116;DHT22;26861;51.824;4.682;2023-02-27T00:23:19;14.70;52.80
41116;DHT22;26861;51.824;4.682;2023-02-27T00:25:45;14.70;52.80
41116;DHT22;26861;51.824;4.682;2023-02-27T00:28:11;14.70;52.80
41116;DHT22;26861;51.824;4.682;2023-02-27T00:30:37;14.70;52.80
41116;DHT22;26861;51.824;4.682;2023-02-27T00:33:03;14.70;52.80
41116;DHT22;26861;51.824;4.682;2023-02-27T00:35:29;14.70;52.80
41116;DHT22;26861;51.824;4.682;2023-02-27T00:37:55;14.70;52.80
41116;DHT22;26861;51.824;4.682;2023-02-27T00:40:21;14.70;52.90
41116;DHT22;26861;51.824;4.682;2023-02-27T00:42:50;14.70;52.80
41116;DHT22;26861;51.824;4.682;2023-02-27T00:45:17;14.70;52.90
41116;DHT22;26861;51.824;4.682;2023-02-27T00:47:45;14.60;52.80
41116;DHT22;26861;51.824;4.682;2023-02-27T00:50:12;14.60;53.50
41116;DHT22;26861;51.824;4.682;2023-02-27T00:52:39;14.60;52.90
41116;DHT22;26861;51.824;4.682;2023-02-27T00:55:06;14.60;52.90
41116;DHT22;26861;51.824;4.682;2023-02-27T00:57:32;14.60;52.90
41116;DHT22;26861;51.824;4.682;2023-02-27T00:59:58;14.60;52.90
41116;DHT22;26861;51.824;4.682;2023-02-27T01:02:24;15.30;53.20
41116;DHT22;26861;51.824;4.682;2023-02-27T01:04:50;14.60;52.90
41116;DHT22;26861;51.824;4.682;2023-02-27T01:07:16;14.60;52.90
41116;DHT22;26861;51.824;4.682;2023-02-27T01:09:43;14.60;52.80
41116;DHT22;26861;51.824;4.682;2023-02-27T01:12:09;14.60;52.90
41116;DHT22;26861;51.824;4.682;2023-02-27T01:14:35;14.60;52.90
41116;DHT22;26861;51.824;4.682;2023-02-27T01:17:02;14.60;53.00
41116;DHT22;26861;51.824;4.682;2023-02-27T01:19:28;14.60;52.90
41116;DHT22;26861;51.824;4.682;2023-02-27T01:21:54;14.60;53.10
41116;DHT22;26861;51.824;4.682;2023-02-27T01:24:20;14.60;53.70
41116;DHT22;26861;51.824;4.682;2023-02-27T01:26:47;14.60;53.10
41116;DHT22;26861;51.824;4.682;2023-02-27T01:29:13;14.60;53.00
41116;DHT22;26861;51.824;4.682;2023-02-27T01:31:40;14.60;53.00
41116;DHT22;26861;51.824;4.682;2023-02-27T01:34:06;14.50;53.00
41116;DHT22;26861;51.824;4.682;2023-02-27T01:36:32;14.50;53.00
41116;DHT22;26861;51.824;4.682;2023-02-27T01:38:58;14.50;53.00
41116;DHT22;26861;51.824;4.682;2023-02-27T01:41:24;14.50;53.00
41116;DHT22;26861;51.824;4.682;2023-02-27T01:46:19;14.60;53.10
41116;DHT22;26861;51.824;4.682;2023-02-27T01:48:45;14.50;53.00
41116;DHT22;26861;51.824;4.682;2023-02-27T01:51:20;14.50;53.00
41116;DHT22;26861;51.824;4.682;2023-02-27T01:53:50;14.50;53.00
41116;DHT22;26861;51.824;4.682;2023-02-27T01:56:18;14.50;53.00
41116;DHT22;26861;51.824;4.682;2023-02-27T01:58:45;14.50;53.00
41116;DHT22;26861;51.824;4.682;2023-02-27T02:01:13;14.50;61.60
41116;DHT22;26861;51.824;4.682;2023-02-27T02:06:09;14.50;53.00
41116;DHT22;26861;51.824;4.682;2023-02-27T02:08:40;14.40;53.00
41116;DHT22;26861;51.824;4.682;2023-02-27T02:11:08;14.40;53.00
41116;DHT22;26861;51.824;4.682;2023-02-27T02:13:36;14.40;53.60
41116;DHT22;26861;51.824;4.682;2023-02-27T02:18:48;14.40;53.00
41116;DHT22;26861;51.824;4.682;2023-02-27T02:24:20;14.40;53.00
41116;DHT22;26861;51.824;4.682;2023-02-27T02:27:02;14.40;53.00
41116;DHT22;26861;51.824;4.682;2023-02-27T02:41:13;14.40;53.00
41116;DHT22;26861;51.824;4.682;2023-02-27T02:49:29;14.40;53.00
41116;DHT22;26861;51.824;4.682;2023-02-27T02:52:47;14.40;53.00
41116;DHT22;26861;51.824;4.682;2023-02-27T02:55:11;14.30;52.90
41116;DHT22;26861;51.824;4.682;2023-02-27T02:57:47;14.30;52.90
41116;DHT22;26861;51.824;4.682;2023-02-27T03:00:20;14.30;52.90
41116;DHT22;26861;51.824;4.682;2023-02-27T03:03:07;14.30;53.50
41116;DHT22;26861;51.824;4.682;2023-02-27T03:05:56;14.30;52.90
41116;DHT22;26861;51.824;4.682;2023-02-27T03:08:32;14.30;52.90
41116;DHT22;26861;51.824;4.682;2023-02-27T03:11:00;14.30;52.90
41116;DHT22;26861;51.824;4.682;2023-02-27T03:16:31;14.30;52.90
41116;DHT22;26861;51.824;4.682;2023-02-27T03:19:12;14.30;52.90
41116;DHT22;26861;51.824;4.682;2023-02-27T03:24:30;14.20;52.90
41116;DHT22;26861;51.824;4.682;2023-02-27T03:26:58;14.20;52.90
41116;DHT22;26861;51.824;4.682;2023-02-27T03:32:27;14.20;52.80
41116;DHT22;26861;51.824;4.682;2023-02-27T03:34:55;14.20;52.80
41116;DHT22;26861;51.824;4.682;2023-02-27T03:37:43;14.20;52.90
41116;DHT22;26861;51.824;4.682;2023-02-27T03:40:35;14.20;53.40
41116;DHT22;26861;51.824;4.682;2023-02-27T03:43:15;14.20;52.90
41116;DHT22;26861;51.824;4.682;2023-02-27T03:48:26;14.10;52.80
41116;DHT22;26861;51.824;4.682;2023-02-27T03:50:52;14.10;52.80
41116;DHT22;26861;51.824;4.682;2023-02-27T03:53:33;14.10;52.80
41116;DHT22;26861;51.824;4.682;2023-02-27T03:56:04;14.10;52.80
41116;DHT22;26861;51.824;4.682;2023-02-27T03:58:31;14.10;52.80
41116;DHT22;26861;51.824;4.682;2023-02-27T04:00:57;14.10;52.80
41116;DHT22;26861;51.824;4.682;2023-02-27T04:03:23;14.10;52.80
41116;DHT22;26861;51.824;4.682;2023-02-27T04:05:49;14.10;52.80
41116;DHT22;26861;51.824;4.682;2023-02-27T04:08:58;14.10;52.80
41116;DHT22;26861;51.824;4.682;2023-02-27T04:11:34;14.10;52.80
41116;DHT22;26861;51.824;4.682;2023-02-27T04:14:22;14.10;52.80
41116;DHT22;26861;51.824;4.682;2023-02-27T04:20:36;14.00;52.70
41116;DHT22;26861;51.824;4.682;2023-02-27T04:26:07;14.00;53.40
41116;DHT22;26861;51.824;4.682;2023-02-27T04:28:52;14.00;52.80
41116;DHT22;26861;51.824;4.682;2023-02-27T04:34:00;14.00;52.80
41116;DHT22;26861;51.824;4.682;2023-02-27T04:39:09;14.00;52.90
41116;DHT22;26861;51.824;4.682;2023-02-27T04:42:00;14.00;52.80
41116;DHT22;26861;51.824;4.682;2023-02-27T04:44:29;14.00;52.90
41116;DHT22;26861;51.824;4.682;2023-02-27T04:46:56;13.90;52.90
41116;DHT22;26861;51.824;4.682;2023-02-27T04:49:37;13.90;53.00
41116;DHT22;26861;51.824;4.682;2023-02-27T04:52:15;13.90;53.00
41116;DHT22;26861;51.824;4.682;2023-02-27T04:55:00;13.90;53.00
41116;DHT22;26861;51.824;4.682;2023-02-27T04:57:39;13.90;53.10
41116;DHT22;26861;51.824;4.682;2023-02-27T05:00:09;13.90;53.10
41116;DHT22;26861;51.824;4.682;2023-02-27T05:05:47;13.90;53.00
41116;DHT22;26861;51.824;4.682;2023-02-27T05:08:36;13.90;53.10
41116;DHT22;26861;51.824;4.682;2023-02-27T05:11:22;13.90;53.10
41116;DHT22;26861;51.824;4.682;2023-02-27T05:13:54;13.80;53.00
41116;DHT22;26861;51.824;4.682;2023-02-27T05:16:31;13.80;53.10
41116;DHT22;26861;51.824;4.682;2023-02-27T05:19:00;13.80;53.00
41116;DHT22;26861;51.824;4.682;2023-02-27T05:21:47;13.80;53.00
41116;DHT22;26861;51.824;4.682;2023-02-27T05:27:55;13.80;53.10
41116;DHT22;26861;51.824;4.682;2023-02-27T05:30:33;13.90;53.10
41116;DHT22;26861;51.824;4.682;2023-02-27T05:38:55;13.80;53.10
41116;DHT22;26861;51.824;4.682;2023-02-27T05:41:25;13.80;53.10
41116;DHT22;26861;51.824;4.682;2023-02-27T05:44:10;13.80;53.10
41116;DHT22;26861;51.824;4.682;2023-02-27T05:46:41;13.80;53.10
41116;DHT22;26861;51.824;4.682;2023-02-27T05:49:23;13.80;53.20
41116;DHT22;26861;51.824;4.682;2023-02-27T05:51:51;13.80;53.30
41116;DHT22;26861;51.824;4.682;2023-02-27T05:54:37;13.70;53.20
41116;DHT22;26861;51.824;4.682;2023-02-27T05:57:09;13.70;53.20
41116;DHT22;26861;51.824;4.682;2023-02-27T06:02:27;13.80;53.30
41116;DHT22;26861;51.824;4.682;2023-02-27T06:04:53;13.70;53.30
41116;DHT22;26861;51.824;4.682;2023-02-27T06:07:19;13.70;53.20
41116;DHT22;26861;51.824;4.682;2023-02-27T06:09:45;13.70;53.20
41116;DHT22;26861;51.824;4.682;2023-02-27T06:12:11;13.80;53.20
41116;DHT22;26861;51.824;4.682;2023-02-27T06:14:37;13.80;53.10
41116;DHT22;26861;51.824;4.682;2023-02-27T06:17:02;13.70;53.10
41116;DHT22;26861;51.824;4.682;2023-02-27T06:19:28;13.70;53.10
41116;DHT22;26861;51.824;4.682;2023-02-27T06:21:53;13.80;53.20
41116;DHT22;26861;51.824;4.682;2023-02-27T06:24:19;13.70;53.10
41116;DHT22;26861;51.824;4.682;2023-02-27T06:26:45;13.70;53.10
41116;DHT22;26861;51.824;4.682;2023-02-27T06:29:12;13.70;53.10
41116;DHT22;26861;51.824;4.682;2023-02-27T06:31:38;13.70;53.00
41116;DHT22;26861;51.824;4.682;2023-02-27T06:34:03;13.70;53.00
41116;DHT22;26861;51.824;4.682;2023-02-27T06:36:29;13.70;53.10
41116;DHT22;26861;51.824;4.682;2023-02-27T06:38:54;13.70;53.10
41116;DHT22;26861;51.824;4.682;2023-02-27T06:41:20;13.70;53.10
41116;DHT22;26861;51.824;4.682;2023-02-27T06:43:46;13.70;53.10
41116;DHT22;26861;51.824;4.682;2023-02-27T06:46:11;13.70;53.20
41116;DHT22;26861;51.824;4.682;2023-02-27T06:48:37;13.70;53.20
41116;DHT22;26861;51.824;4.682;2023-02-27T06:51:02;13.70;53.10
41116;DHT22;26861;51.824;4.682;2023-02-27T06:53:28;13.70;53.10
41116;DHT22;26861;51.824;4.682;2023-02-27T06:55:54;13.70;53.10
41116;DHT22;26861;51.824;4.682;2023-02-27T06:58:20;13.70;53.10
41116;DHT22;26861;51.824;4.682;2023-02-27T07:00:45;13.70;53.00
41116;DHT22;26861;51.824;4.682;2023-02-27T07:03:11;13.60;52.90
41116;DHT22;26861;51.824;4.682;2023-02-27T07:05:37;13.70;53.70
41116;DHT22;26861;51.824;4.682;2023-02-27T07:08:03;13.70;52.90
41116;DHT22;26861;51.824;4.682;2023-02-27T07:10:29;13.60;52.90
41116;DHT22;26861;51.824;4.682;2023-02-27T07:12:55;13.60;52.90
41116;DHT22;26861;51.824;4.682;2023-02-27T07:15:21;13.60;52.90
41116;DHT22;26861;51.824;4.682;2023-02-27T07:17:47;13.60;53.00
41116;DHT22;26861;51.824;4.682;2023-02-27T07:20:14;13.60;53.10
41116;DHT22;26861;51.824;4.682;2023-02-27T07:22:40;13.70;53.10
41116;DHT22;26861;51.824;4.682;2023-02-27T07:25:07;13.60;53.10
41116;DHT22;26861;51.824;4.682;2023-02-27T07:27:33;13.70;53.10
41116;DHT22;26861;51.824;4.682;2023-02-27T07:29:59;13.60;53.10
41116;DHT22;26861;51.824;4.682;2023-02-27T07:32:26;13.60;53.20
41116;DHT22;26861;51.824;4.682;2023-02-27T07:34:52;13.60;53.10
41116;DHT22;26861;51.824;4.682;2023-02-27T07:37:19;13.60;53.20
41116;DHT22;26861;51.824;4.682;2023-02-27T07:39:45;13.60;53.10
41116;DHT22;26861;51.824;4.682;2023-02-27T07:42:11;13.60;53.00
41116;DHT22;26861;51.824;4.682;2023-02-27T07:44:37;13.60;53.10
41116;DHT22;26861;51.824;4.682;2023-02-27T07:47:03;13.60;53.00
41116;DHT22;26861;51.824;4.682;2023-02-27T07:49:29;13.60;53.00
41116;DHT22;26861;51.824;4.682;2023-02-27T07:51:55;13.60;53.10
41116;DHT22;26861;51.824;4.682;2023-02-27T07:54:21;13.60;53.00
41116;DHT22;26861;51.824;4.682;2023-02-27T07:56:47;13.60;53.00
41116;DHT22;26861;51.824;4.682;2023-02-27T07:59:13;13.60;53.00
41116;DHT22;26861;51.824;4.682;2023-02-27T08:01:39;13.60;53.00
41116;DHT22;26861;51.824;4.682;2023-02-27T08:04:05;13.70;53.10
41116;DHT22;26861;51.824;4.682;2023-02-27T08:06:31;13.60;52.90
41116;DHT22;26861;51.824;4.682;2023-02-27T08:08:57;13.60;52.90
41116;DHT22;26861;51.824;4.682;2023-02-27T08:11:23;13.60;52.90
41116;DHT22;26861;51.824;4.682;2023-02-27T08:13:49;13.60;53.00
41116;DHT22;26861;51.824;4.682;2023-02-27T08:16:15;13.60;53.00
41116;DHT22;26861;51.824;4.682;2023-02-27T08:18:41;13.70;53.00
41116;DHT22;26861;51.824;4.682;2023-02-27T08:21:07;13.70;53.10
41116;DHT22;26861;51.824;4.682;2023-02-27T08:23:33;13.70;53.10
41116;DHT22;26861;51.824;4.682;2023-02-27T08:26:00;13.70;53.10
41116;DHT22;26861;51.824;4.682;2023-02-27T08:28:27;13.70;53.10
41116;DHT22;26861;51.824;4.682;2023-02-27T08:30:54;13.70;53.10
41116;DHT22;26861;51.824;4.682;2023-02-27T08:33:21;13.70;53.00
41116;DHT22;26861;51.824;4.682;2023-02-27T08:35:47;13.70;53.10
41116;DHT22;26861;51.824;4.682;2023-02-27T08:38:13;13.80;53.20
41116;DHT22;26861;51.824;4.682;2023-02-27T08:40:39;13.80;53.20
41116;DHT22;26861;51.824;4.682;2023-02-27T08:43:05;13.80;53.30
41116;DHT22;26861;51.824;4.682;2023-02-27T08:45:31;13.80;53.20
41116;DHT22;26861;51.824;4.682;2023-02-27T08:47:57;13.80;53.30
41116;DHT22;26861;51.824;4.682;2023-02-27T08:50:23;13.80;53.40
41116;DHT22;26861;51.824;4.682;2023-02-27T08:52:49;13.80;53.40
41116;DHT22;26861;51.824;4.682;2023-02-27T08:55:15;13.80;54.10
41116;DHT22;26861;51.824;4.682;2023-02-27T08:57:41;13.80;53.60
41116;DHT22;26861;51.824;4.682;2023-02-27T09:00:09;13.80;53.60
41116;DHT22;26861;51.824;4.682;2023-02-27T09:02:35;13.80;53.70
41116;DHT22;26861;51.824;4.682;2023-02-27T09:05:01;13.80;53.90
41116;DHT22;26861;51.824;4.682;2023-02-27T09:07:27;13.80;53.90
41116;DHT22;26861;51.824;4.682;2023-02-27T09:09:53;13.80;54.00
41116;DHT22;26861;51.824;4.682;2023-02-27T09:12:19;13.80;54.00
41116;DHT22;26861;51.824;4.682;2023-02-27T09:14:45;13.90;54.20
41116;DHT22;26861;51.824;4.682;2023-02-27T09:17:11;13.90;54.10
41116;DHT22;26861;51.824;4.682;2023-02-27T09:19:37;13.90;54.20
41116;DHT22;26861;51.824;4.682;2023-02-27T09:22:03;14.00;54.30
41116;DHT22;26861;51.824;4.682;2023-02-27T09:24:29;14.00;54.30
41116;DHT22;26861;51.824;4.682;2023-02-27T09:26:55;14.00;54.60
41116;DHT22;26861;51.824;4.682;2023-02-27T09:29:21;14.00;54.50
41116;DHT22;26861;51.824;4.682;2023-02-27T09:31:48;14.10;54.60
41116;DHT22;26861;51.824;4.682;2023-02-27T09:34:15;14.10;54.50
41116;DHT22;26861;51.824;4.682;2023-02-27T09:36:41;14.20;54.60
41116;DHT22;26861;51.824;4.682;2023-02-27T09:39:07;14.20;54.60
41116;DHT22;26861;51.824;4.682;2023-02-27T09:44:43;14.30;54.80
41116;DHT22;26861;51.824;4.682;2023-02-27T09:47:24;14.40;54.90
41116;DHT22;26861;51.824;4.682;2023-02-27T09:52:20;14.40;54.90
41116;DHT22;26861;51.824;4.682;2023-02-27T09:54:47;14.50;54.90
41116;DHT22;26861;51.824;4.682;2023-02-27T09:57:18;14.50;54.80
41116;DHT22;26861;51.824;4.682;2023-02-27T09:59:50;14.50;54.80
41116;DHT22;26861;51.824;4.682;2023-02-27T10:16:12;14.80;54.50
41116;DHT22;26861;51.824;4.682;2023-02-27T10:21:21;14.90;54.50
41116;DHT22;26861;51.824;4.682;2023-02-27T10:26:50;15.10;54.50
41116;DHT22;26861;51.824;4.682;2023-02-27T10:29:29;15.10;54.40
41116;DHT22;26861;51.824;4.682;2023-02-27T10:32:13;15.10;54.40
41116;DHT22;26861;51.824;4.682;2023-02-27T10:34:41;15.20;54.40
41116;DHT22;26861;51.824;4.682;2023-02-27T10:37:13;15.30;54.40
41116;DHT22;26861;51.824;4.682;2023-02-27T10:39:44;15.30;54.50
41116;DHT22;26861;51.824;4.682;2023-02-27T10:42:13;15.30;54.40
41116;DHT22;26861;51.824;4.682;2023-02-27T10:44:40;15.40;54.50
41116;DHT22;26861;51.824;4.682;2023-02-27T10:47:12;15.40;54.40
41116;DHT22;26861;51.824;4.682;2023-02-27T10:49:40;15.50;54.50
41116;DHT22;26861;51.824;4.682;2023-02-27T10:52:12;15.60;54.60
41116;DHT22;26861;51.824;4.682;2023-02-27T10:54:39;15.60;54.60
41116;DHT22;26861;51.824;4.682;2023-02-27T10:59:51;15.70;54.50
41116;DHT22;26861;51.824;4.682;2023-02-27T11:04:58;15.80;54.40
41116;DHT22;26861;51.824;4.682;2023-02-27T11:07:33;15.90;54.30
41116;DHT22;26861;51.824;4.682;2023-02-27T11:10:22;15.90;54.40
41116;DHT22;26861;51.824;4.682;2023-02-27T11:13:01;16.00;54.30
41116;DHT22;26861;51.824;4.682;2023-02-27T11:15:33;16.00;54.40
41116;DHT22;26861;51.824;4.682;2023-02-27T11:18:20;16.10;54.30
41116;DHT22;26861;51.824;4.682;2023-02-27T11:20:49;16.20;54.30
41116;DHT22;26861;51.824;4.682;2023-02-27T11:23:24;16.20;54.00
41116;DHT22;26861;51.824;4.682;2023-02-27T11:25:53;16.30;54.10
41116;DHT22;26861;51.824;4.682;2023-02-27T11:28:33;16.30;53.90
41116;DHT22;26861;51.824;4.682;2023-02-27T11:31:14;16.40;53.80
41116;DHT22;26861;51.824;4.682;2023-02-27T11:33:49;16.50;53.70
41116;DHT22;26861;51.824;4.682;2023-02-27T11:36:16;16.60;53.80
41116;DHT22;26861;51.824;4.682;2023-02-27T11:38:50;16.70;53.70
41116;DHT22;26861;51.824;4.682;2023-02-27T11:41:18;16.70;53.50
41116;DHT22;26861;51.824;4.682;2023-02-27T11:43:51;16.80;53.20
41116;DHT22;26861;51.824;4.682;2023-02-27T11:46:20;16.80;53.10
41116;DHT22;26861;51.824;4.682;2023-02-27T11:48:49;16.90;53.10
41116;DHT22;26861;51.824;4.682;2023-02-27T11:54:14;16.80;52.50
41116;DHT22;26861;51.824;4.682;2023-02-27T11:56:59;16.70;53.30
41116;DHT22;26861;51.824;4.682;2023-02-27T12:05:05;16.50;54.40
41116;DHT22;26861;51.824;4.682;2023-02-27T12:07:55;16.50;54.70
41116;DHT22;26861;51.824;4.682;2023-02-27T12:10:27;16.40;54.90
41116;DHT22;26861;51.824;4.682;2023-02-27T12:13:08;16.40;54.90
41116;DHT22;26861;51.824;4.682;2023-02-27T12:16:00;16.50;54.80
41116;DHT22;26861;51.824;4.682;2023-02-27T12:18:36;16.50;55.20
41116;DHT22;26861;51.824;4.682;2023-02-27T12:23:46;16.50;55.10
41116;DHT22;26861;51.824;4.682;2023-02-27T12:26:26;16.70;54.90
41116;DHT22;26861;51.824;4.682;2023-02-27T12:29:01;16.70;54.60
41116;DHT22;26861;51.824;4.682;2023-02-27T12:31:47;16.80;54.50
41116;DHT22;26861;51.824;4.682;2023-02-27T12:36:52;16.90;53.90
41116;DHT22;26861;51.824;4.682;2023-02-27T12:39:20;16.90;53.10
41116;DHT22;26861;51.824;4.682;2023-02-27T12:50:05;16.70;54.60
41116;DHT22;26861;51.824;4.682;2023-02-27T12:52:51;16.60;55.00
41116;DHT22;26861;51.824;4.682;2023-02-27T12:55:30;16.60;54.40
41116;DHT22;26861;51.824;4.682;2023-02-27T13:00:47;16.80;54.50
41116;DHT22;26861;51.824;4.682;2023-02-27T13:06:02;17.20;53.80
41116;DHT22;26861;51.824;4.682;2023-02-27T13:18:41;17.20;53.70
41116;DHT22;26861;51.824;4.682;2023-02-27T13:21:32;17.30;53.70
41116;DHT22;26861;51.824;4.682;2023-02-27T13:24:16;17.50;53.50
41116;DHT22;26861;51.824;4.682;2023-02-27T13:34:57;17.90;51.90
41116;DHT22;26861;51.824;4.682;2023-02-27T13:37:55;17.90;52.00
41116;DHT22;26861;51.824;4.682;2023-02-27T13:40:33;17.80;51.80
41116;DHT22;26861;51.824;4.682;2023-02-27T13:43:11;17.70;52.30
41116;DHT22;26861;51.824;4.682;2023-02-27T13:45:56;17.70;52.70
41116;DHT22;26861;51.824;4.682;2023-02-27T13:50:59;17.60;52.30
41116;DHT22;26861;51.824;4.682;2023-02-27T13:53:27;17.50;52.90
41116;DHT22;26861;51.824;4.682;2023-02-27T13:56:18;17.50;52.90
41116;DHT22;26861;51.824;4.682;2023-02-27T13:58:43;17.50;52.80
41116;DHT22;26861;51.824;4.682;2023-02-27T14:01:25;17.30;60.20
41116;DHT22;26861;51.824;4.682;2023-02-27T14:03:55;17.60;53.00
41116;DHT22;26861;51.824;4.682;2023-02-27T14:06:24;17.50;52.00
41116;DHT22;26861;51.824;4.682;2023-02-27T14:08:53;17.50;52.60
41116;DHT22;26861;51.824;4.682;2023-02-27T14:11:27;17.50;52.20
41116;DHT22;26861;51.824;4.682;2023-02-27T14:24:40;17.30;53.20
41116;DHT22;26861;51.824;4.682;2023-02-27T14:27:28;17.20;53.20
41116;DHT22;26861;51.824;4.682;2023-02-27T14:29:57;17.20;53.50
41116;DHT22;26861;51.824;4.682;2023-02-27T14:32:30;17.10;52.60
41116;DHT22;26861;51.824;4.682;2023-02-27T14:34:58;17.10;52.40
41116;DHT22;26861;51.824;4.682;2023-02-27T14:37:25;17.10;53.40
41116;DHT22;26861;51.824;4.682;2023-02-27T14:39:53;17.00;52.80
41116;DHT22;26861;51.824;4.682;2023-02-27T14:42:33;17.00;53.40
41116;DHT22;26861;51.824;4.682;2023-02-27T14:45:02;17.00;53.70
41116;DHT22;26861;51.824;4.682;2023-02-27T14:47:32;17.00;53.00
41116;DHT22;26861;51.824;4.682;2023-02-27T14:50:00;17.00;53.30
41116;DHT22;26861;51.824;4.682;2023-02-27T14:52:31;16.90;54.10
41116;DHT22;26861;51.824;4.682;2023-02-27T14:55:21;17.00;53.50
41116;DHT22;26861;51.824;4.682;2023-02-27T14:58:18;17.00;53.10
41116;DHT22;26861;51.824;4.682;2023-02-27T15:01:06;17.00;53.60
41116;DHT22;26861;51.824;4.682;2023-02-27T15:03:40;17.00;53.00
41116;DHT22;26861;51.824;4.682;2023-02-27T15:06:22;17.00;52.30
41116;DHT22;26861;51.824;4.682;2023-02-27T15:08:53;17.00;51.70
41116;DHT22;26861;51.824;4.682;2023-02-27T15:11:22;17.00;52.50
41116;DHT22;26861;51.824;4.682;2023-02-27T15:14:01;17.00;51.60
41116;DHT22;26861;51.824;4.682;2023-02-27T15:16:34;17.00;50.80
41116;DHT22;26861;51.824;4.682;2023-02-27T15:21:46;17.30;51.20
41116;DHT22;26861;51.824;4.682;2023-02-27T15:24:25;17.40;50.60
41116;DHT22;26861;51.824;4.682;2023-02-27T15:31:58;17.50;51.80
41116;DHT22;26861;51.824;4.682;2023-02-27T15:34:24;17.60;51.50
41116;DHT22;26861;51.824;4.682;2023-02-27T15:36:52;17.70;50.80
41116;DHT22;26861;51.824;4.682;2023-02-27T15:39:21;17.70;50.40
41116;DHT22;26861;51.824;4.682;2023-02-27T15:41:52;17.70;49.80
41116;DHT22;26861;51.824;4.682;2023-02-27T15:44:34;17.60;50.20
41116;DHT22;26861;51.824;4.682;2023-02-27T15:47:02;17.60;49.80
41116;DHT22;26861;51.824;4.682;2023-02-27T15:49:27;17.50;50.30
41116;DHT22;26861;51.824;4.682;2023-02-27T15:52:03;17.40;50.20
41116;DHT22;26861;51.824;4.682;2023-02-27T15:54:34;17.30;50.00
41116;DHT22;26861;51.824;4.682;2023-02-27T15:57:03;17.30;50.50
41116;DHT22;26861;51.824;4.682;2023-02-27T15:59:32;17.20;50.80
41116;DHT22;26861;51.824;4.682;2023-02-27T16:02:00;17.20;49.50
41116;DHT22;26861;51.824;4.682;2023-02-27T16:04:29;17.10;50.30
41116;DHT22;26861;51.824;4.682;2023-02-27T16:07:12;17.10;50.90
41116;DHT22;26861;51.824;4.682;2023-02-27T16:09:40;17.00;51.00
41116;DHT22;26861;51.824;4.682;2023-02-27T16:12:37;17.00;51.00
41116;DHT22;26861;51.824;4.682;2023-02-27T16:20:28;17.00;50.70
41116;DHT22;26861;51.824;4.682;2023-02-27T16:25:31;16.90;50.80
41116;DHT22;26861;51.824;4.682;2023-02-27T16:27:56;16.90;50.40
41116;DHT22;26861;51.824;4.682;2023-02-27T16:30:22;16.80;50.90
41116;DHT22;26861;51.824;4.682;2023-02-27T16:32:48;16.80;50.30
41116;DHT22;26861;51.824;4.682;2023-02-27T16:35:21;16.80;50.80
41116;DHT22;26861;51.824;4.682;2023-02-27T16:37:49;16.80;50.60
41116;DHT22;26861;51.824;4.682;2023-02-27T16:40:18;16.80;51.20
41116;DHT22;26861;51.824;4.682;2023-02-27T16:42:44;16.70;50.80
41116;DHT22;26861;51.824;4.682;2023-02-27T16:45:15;16.70;50.40
41116;DHT22;26861;51.824;4.682;2023-02-27T16:47:41;16.70;50.70
41116;DHT22;26861;51.824;4.682;2023-02-27T16:50:24;16.70;50.20
41116;DHT22;26861;51.824;4.682;2023-02-27T16:52:50;16.70;50.40
41116;DHT22;26861;51.824;4.682;2023-02-27T16:55:16;16.70;50.00
41116;DHT22;26861;51.824;4.682;2023-02-27T16:57:42;16.60;50.70
41116;DHT22;26861;51.824;4.682;2023-02-27T17:00:13;16.60;50.90
41116;DHT22;26861;51.824;4.682;2023-02-27T17:02:39;16.60;50.80
41116;DHT22;26861;51.824;4.682;2023-02-27T17:05:05;16.60;50.80
41116;DHT22;26861;51.824;4.682;2023-02-27T17:07:32;16.60;50.70
41116;DHT22;26861;51.824;4.682;2023-02-27T17:09:58;16.60;50.80
41116;DHT22;26861;51.824;4.682;2023-02-27T17:12:25;16.60;51.10
41116;DHT22;26861;51.824;4.682;2023-02-27T17:14:51;16.50;49.80
41116;DHT22;26861;51.824;4.682;2023-02-27T17:17:18;16.50;50.60
41116;DHT22;26861;51.824;4.682;2023-02-27T17:19:44;16.50;50.80
41116;DHT22;26861;51.824;4.682;2023-02-27T17:22:10;16.50;50.80
41116;DHT22;26861;51.824;4.682;2023-02-27T17:24:37;16.50;51.10
41116;DHT22;26861;51.824;4.682;2023-02-27T17:27:03;16.50;51.00
41116;DHT22;26861;51.824;4.682;2023-02-27T17:29:29;16.50;51.40
41116;DHT22;26861;51.824;4.682;2023-02-27T17:31:55;16.50;51.60
41116;DHT22;26861;51.824;4.682;2023-02-27T17:34:22;16.50;51.20
41116;DHT22;26861;51.824;4.682;2023-02-27T17:36:48;16.50;51.70
41116;DHT22;26861;51.824;4.682;2023-02-27T17:39:15;16.40;50.80
41116;DHT22;26861;51.824;4.682;2023-02-27T17:41:42;16.40;51.90
41116;DHT22;26861;51.824;4.682;2023-02-27T17:44:09;16.40;51.40
41116;DHT22;26861;51.824;4.682;2023-02-27T17:46:36;16.40;51.30
41116;DHT22;26861;51.824;4.682;2023-02-27T17:49:02;16.40;51.50
41116;DHT22;26861;51.824;4.682;2023-02-27T17:51:29;16.40;51.70
41116;DHT22;26861;51.824;4.682;2023-02-27T17:53:56;16.40;51.60
41116;DHT22;26861;51.824;4.682;2023-02-27T17:56:24;16.30;51.70
41116;DHT22;26861;51.824;4.682;2023-02-27T17:58:50;16.30;51.70
41116;DHT22;26861;51.824;4.682;2023-02-27T18:01:19;16.30;59.60
41116;DHT22;26861;51.824;4.682;2023-02-27T18:03:47;16.30;51.70
41116;DHT22;26861;51.824;4.682;2023-02-27T18:06:14;16.30;51.70
41116;DHT22;26861;51.824;4.682;2023-02-27T18:08:41;16.30;51.70
41116;DHT22;26861;51.824;4.682;2023-02-27T18:11:11;16.30;51.70
41116;DHT22;26861;51.824;4.682;2023-02-27T18:13:38;16.30;51.70
41116;DHT22;26861;51.824;4.682;2023-02-27T18:16:04;16.30;51.70
41116;DHT22;26861;51.824;4.682;2023-02-27T18:18:30;16.30;51.70
41116;DHT22;26861;51.824;4.682;2023-02-27T18:21:02;16.30;51.60
41116;DHT22;26861;51.824;4.682;2023-02-27T18:23:28;16.30;51.70
41116;DHT22;26861;51.824;4.682;2023-02-27T18:25:57;16.30;51.60
41116;DHT22;26861;51.824;4.682;2023-02-27T18:28:24;16.20;51.50
41116;DHT22;26861;51.824;4.682;2023-02-27T18:30:50;16.20;51.60
41116;DHT22;26861;51.824;4.682;2023-02-27T18:33:16;16.20;51.60
41116;DHT22;26861;51.824;4.682;2023-02-27T18:35:42;16.20;51.60
41116;DHT22;26861;51.824;4.682;2023-02-27T18:38:08;16.20;51.50
41116;DHT22;26861;51.824;4.682;2023-02-27T18:40:34;16.20;51.50
41116;DHT22;26861;51.824;4.682;2023-02-27T18:43:00;16.20;51.50